Time;durP1;ratioP1;P1;durP2;ratioP2;P2;SDS_P1;SDS_P2;PMS_P1;PMS_P2;Temp;Humidity;BMP_temperature;BMP_pressure;BME280_temperature;BME280_humidity;BME280_pressure;Samples;Min_cycle;Max_cycle;Signal;HPM_P1;HPM_P2
2023/07/21 00:01:49;;;;;;;4.72;4.30;;;16.10;99.90;;;;;;5036565;28;20202;-81
2023/07/21 00:04:17;;;;;;;4.20;3.80;;;16.20;99.90;;;;;;5054693;28;20274;-82
2023/07/21 00:06:43;;;;;;;8.05;4.57;;;16.30;99.90;;;;;;5040402;28;20171;-81
2023/07/21 00:09:09;;;;;;;4.88;4.30;;;16.20;99.90;;;;;;5055135;28;20176;-82
2023/07/21 00:11:38;;;;;;;6.90;4.50;;;16.20;99.90;;;;;;5038234;28;20215;-81
2023/07/21 00:14:05;;;;;;;5.43;4.40;;;16.10;99.90;;;;;;5039613;28;20175;-83
2023/07/21 00:16:33;;;;;;;5.32;4.82;;;16.10;99.90;;;;;;5055261;28;20182;-82
2023/07/21 00:19:00;;;;;;;6.93;4.43;;;16.10;99.90;;;;;;5053686;28;20666;-80
2023/07/21 00:21:26;;;;;;;4.85;4.35;;;16.20;99.90;;;;;;5054454;28;20202;-78
2023/07/21 00:23:52;;;;;;;7.15;5.00;;;16.20;99.90;;;;;;5050994;28;20528;-77
2023/07/21 00:26:18;;;;;;;6.78;4.95;;;16.20;99.90;;;;;;5034311;28;20662;-77
2023/07/21 00:28:44;;;;;;;6.10;4.50;;;16.20;99.90;;;;;;5050992;28;20179;-77
2023/07/21 00:31:10;;;;;;;5.72;4.50;;;16.10;99.90;;;;;;5035240;28;20199;-77
2023/07/21 00:33:37;;;;;;;5.78;4.50;;;16.20;99.90;;;;;;5035400;28;20182;-77
2023/07/21 00:36:04;;;;;;;4.88;4.43;;;16.20;99.90;;;;;;5035942;28;20176;-79
2023/07/21 00:38:30;;;;;;;5.32;4.82;;;16.20;99.90;;;;;;5037450;28;20541;-80
2023/07/21 00:40:56;;;;;;;5.53;4.45;;;16.20;99.90;;;;;;5037407;28;20173;-79
2023/07/21 00:43:22;;;;;;;4.47;3.90;;;16.10;99.90;;;;;;5037708;28;20556;-79
2023/07/21 00:45:48;;;;;;;6.85;4.78;;;16.10;99.90;;;;;;5053011;28;20200;-79
2023/07/21 00:48:16;;;;;;;7.40;5.28;;;16.00;99.90;;;;;;5037199;28;20167;-79
2023/07/21 00:50:49;;;;;;;7.20;5.70;;;15.90;99.90;;;;;;5052881;28;20183;-80
2023/07/21 00:53:15;;;;;;;6.35;5.43;;;15.80;99.90;;;;;;5038006;28;20188;-80
2023/07/21 00:55:42;;;;;;;7.55;4.82;;;15.80;99.90;;;;;;5038071;28;20173;-79
2023/07/21 00:58:11;;;;;;;6.10;5.13;;;15.80;99.90;;;;;;5037905;28;20175;-79
2023/07/21 01:00:39;;;;;;;6.05;4.57;;;15.80;99.90;;;;;;5037684;28;20214;-79
2023/07/21 01:03:06;;;;;;;5.20;4.70;;;15.80;99.90;;;;;;5052932;28;20203;-79
2023/07/21 01:05:36;;;;;;;6.20;5.00;;;15.80;99.90;;;;;;5037977;28;20175;-79
2023/07/21 01:08:06;;;;;;;6.93;4.78;;;15.70;99.90;;;;;;5052691;28;20283;-80
2023/07/21 01:10:33;;;;;;;5.75;5.05;;;15.60;99.90;;;;;;5052991;28;20647;-79
2023/07/21 01:13:01;;;;;;;5.68;4.90;;;15.60;99.90;;;;;;5035971;28;20211;-79
2023/07/21 01:15:28;;;;;;;5.75;5.00;;;15.60;99.90;;;;;;5036317;28;20254;-79
2023/07/21 01:17:55;;;;;;;6.20;5.22;;;15.60;99.90;;;;;;5052137;28;20182;-79
2023/07/21 01:20:23;;;;;;;7.38;5.75;;;15.50;99.90;;;;;;5036310;28;20544;-80
2023/07/21 01:23:10;;;;;;;7.20;6.50;;;15.50;99.90;;;;;;5036930;28;20721;-79
2023/07/21 01:25:38;;;;;;;5.80;5.28;;;15.50;99.90;;;;;;5052630;28;20202;-79
2023/07/21 01:28:06;;;;;;;7.47;5.65;;;15.40;99.90;;;;;;5037066;28;20175;-79
2023/07/21 01:30:33;;;;;;;7.60;5.00;;;15.30;99.90;;;;;;5037313;28;20541;-80
2023/07/21 01:33:01;;;;;;;7.63;5.43;;;15.40;99.90;;;;;;5052342;28;20242;-79
2023/07/21 01:35:29;;;;;;;5.22;4.72;;;15.30;99.90;;;;;;5037466;28;20164;-80
2023/07/21 01:37:57;;;;;;;7.13;5.05;;;15.30;99.90;;;;;;5037182;28;20194;-79
2023/07/21 01:40:25;;;;;;;6.97;5.47;;;15.30;99.90;;;;;;5053270;28;20707;-81
2023/07/21 01:42:51;;;;;;;7.82;5.25;;;15.20;99.90;;;;;;5034983;28;20207;-80
2023/07/21 01:45:17;;;;;;;5.70;5.10;;;15.20;99.90;;;;;;5051029;28;20221;-81
2023/07/21 01:47:47;;;;;;;7.38;6.15;;;15.10;99.90;;;;;;5034922;28;20179;-81
2023/07/21 01:50:16;;;;;;;6.65;5.50;;;15.10;99.90;;;;;;5051697;28;20270;-81
2023/07/21 01:52:45;;;;;;;7.03;5.57;;;15.10;99.90;;;;;;5051709;28;20574;-81
2023/07/21 01:55:25;;;;;;;6.88;5.50;;;15.10;99.90;;;;;;5054442;28;20309;-81
2023/07/21 01:58:11;;;;;;;7.10;5.68;;;15.20;99.90;;;;;;5039792;28;20228;-81
2023/07/21 02:00:41;;;;;;;7.55;5.80;;;15.20;99.90;;;;;;5051888;28;20163;-81
2023/07/21 02:03:07;;;;;;;7.75;5.95;;;15.10;99.90;;;;;;5035423;28;20587;-81
2023/07/21 02:05:34;;;;;;;6.07;5.35;;;15.10;99.90;;;;;;5036930;28;20205;-81
2023/07/21 02:08:00;;;;;;;6.22;5.60;;;15.00;99.90;;;;;;5037462;28;20178;-78
2023/07/21 02:10:25;;;;;;;6.03;5.20;;;15.00;99.90;;;;;;5035328;28;20266;-78
2023/07/21 02:12:51;;;;;;;9.15;5.68;;;15.00;99.90;;;;;;5037665;28;20551;-77
2023/07/21 02:15:17;;;;;;;7.90;5.82;;;15.00;99.90;;;;;;5032604;28;20179;-77
2023/07/21 02:17:43;;;;;;;6.25;5.65;;;15.00;99.90;;;;;;5033750;28;20167;-77
2023/07/21 02:20:09;;;;;;;7.35;6.00;;;15.00;99.90;;;;;;5049066;28;20175;-78
2023/07/21 02:22:37;;;;;;;7.45;6.15;;;15.00;99.90;;;;;;5032707;28;20198;-77
2023/07/21 02:25:04;;;;;;;7.57;6.13;;;14.90;99.90;;;;;;5033345;28;20179;-77
2023/07/21 02:27:31;;;;;;;6.93;6.03;;;14.90;99.90;;;;;;5048944;28;20597;-77
2023/07/21 02:29:57;;;;;;;7.78;5.50;;;14.80;99.90;;;;;;5048810;28;20233;-77
2023/07/21 02:32:23;;;;;;;7.03;6.32;;;14.80;99.90;;;;;;5049574;28;20214;-79
2023/07/21 02:34:50;;;;;;;7.20;6.07;;;14.80;99.90;;;;;;5049706;28;20182;-79
2023/07/21 02:37:16;;;;;;;6.30;5.70;;;14.80;99.90;;;;;;5033631;28;20197;-77
2023/07/21 02:39:41;;;;;;;5.60;5.10;;;14.80;99.90;;;;;;5048985;28;20698;-77
2023/07/21 02:42:07;;;;;;;7.72;5.57;;;14.80;99.90;;;;;;5033190;28;20198;-77
2023/07/21 02:44:33;;;;;;;7.82;5.57;;;14.80;99.90;;;;;;5033701;28;20563;-77
2023/07/21 02:46:59;;;;;;;9.18;6.28;;;14.70;99.90;;;;;;5033350;28;20175;-77
2023/07/21 02:49:24;;;;;;;6.25;5.47;;;14.70;99.90;;;;;;5032250;28;20175;-80
2023/07/21 02:51:50;;;;;;;8.35;5.72;;;14.60;99.90;;;;;;5035952;28;20239;-80
2023/07/21 02:54:16;;;;;;;6.88;6.05;;;14.60;99.90;;;;;;5035475;28;20171;-80
2023/07/21 02:56:42;;;;;;;6.55;5.93;;;14.50;99.90;;;;;;5035457;28;20178;-80
2023/07/21 02:59:09;;;;;;;7.03;6.35;;;14.50;99.90;;;;;;5052538;28;20187;-80
2023/07/21 03:01:36;;;;;;;6.57;5.75;;;14.60;99.90;;;;;;5052157;28;20302;-80
2023/07/21 03:04:03;;;;;;;6.20;5.60;;;14.60;99.90;;;;;;5050242;28;20179;-77
2023/07/21 03:06:30;;;;;;;7.60;5.85;;;14.60;99.90;;;;;;5033541;28;20545;-77
2023/07/21 03:08:56;;;;;;;7.32;6.47;;;14.60;99.90;;;;;;5034079;28;20171;-78
2023/07/21 03:11:22;;;;;;;8.88;5.90;;;14.50;99.90;;;;;;5034171;28;20659;-78
2023/07/21 03:13:48;;;;;;;8.07;7.28;;;14.50;99.90;;;;;;5049571;28;20241;-78
2023/07/21 03:16:14;;;;;;;8.23;6.15;;;14.40;99.90;;;;;;5049489;28;20183;-78
2023/07/21 03:18:40;;;;;;;8.48;7.18;;;14.50;99.90;;;;;;5034987;28;20686;-80
2023/07/21 03:21:05;;;;;;;7.10;6.35;;;14.50;99.90;;;;;;5036469;28;20163;-80
2023/07/21 03:23:31;;;;;;;10.52;7.88;;;14.50;99.90;;;;;;5035209;28;20183;-80
2023/07/21 03:25:57;;;;;;;8.43;7.55;;;14.40;99.90;;;;;;5033485;28;20179;-78
2023/07/21 03:28:23;;;;;;;7.93;7.13;;;14.40;99.90;;;;;;5033625;28;20239;-78
2023/07/21 03:31:02;;;;;;;9.00;7.82;;;14.30;99.90;;;;;;5033346;28;20179;-78
2023/07/21 03:33:28;;;;;;;9.95;7.70;;;14.30;99.90;;;;;;5035908;28;20761;-80
2023/07/21 03:36:01;;;;;;;7.45;6.75;;;14.30;99.90;;;;;;5037340;28;20179;-79
2023/07/21 03:38:29;;;;;;;8.15;7.30;;;14.30;99.90;;;;;;5035818;28;20179;-78
2023/07/21 03:41:06;;;;;;;9.85;7.25;;;14.30;99.90;;;;;;5038698;28;20625;-78
2023/07/21 03:43:32;;;;;;;10.40;6.97;;;14.20;99.90;;;;;;5054095;28;20267;-78
2023/07/21 03:46:03;;;;;;;8.52;7.63;;;14.20;99.90;;;;;;5039207;28;20179;-78
2023/07/21 03:48:29;;;;;;;8.80;7.90;;;14.20;99.90;;;;;;5056930;28;20247;-78
2023/07/21 03:51:06;;;;;;;9.70;7.90;;;14.10;99.90;;;;;;5054786;28;20182;-78
2023/07/21 03:53:32;;;;;;;8.93;7.38;;;14.20;99.90;;;;;;5038207;28;20201;-77
2023/07/21 03:55:58;;;;;;;10.02;7.82;;;14.30;99.90;;;;;;5039060;28;20175;-77
2023/07/21 03:58:25;;;;;;;10.45;8.00;;;14.30;99.90;;;;;;5054243;28;20175;-78
2023/07/21 04:00:51;;;;;;;10.40;7.78;;;14.20;99.90;;;;;;5054061;28;20175;-78
2023/07/21 04:03:19;;;;;;;9.07;8.10;;;14.10;99.90;;;;;;5053698;28;20202;-78
2023/07/21 04:05:45;;;;;;;10.30;8.20;;;14.10;99.90;;;;;;5038564;28;20246;-78
2023/07/21 04:08:13;;;;;;;8.80;7.15;;;14.10;99.90;;;;;;5039247;28;20252;-82
2023/07/21 04:10:41;;;;;;;9.52;8.15;;;14.10;99.90;;;;;;5060850;28;20183;-82
2023/07/21 04:13:06;;;;;;;9.35;7.30;;;14.00;99.90;;;;;;5060777;28;20206;-82
2023/07/21 04:15:32;;;;;;;9.60;8.40;;;14.10;99.90;;;;;;5060821;28;20180;-82
2023/07/21 04:17:58;;;;;;;11.57;8.18;;;14.10;99.90;;;;;;5061506;28;20194;-81
2023/07/21 04:20:24;;;;;;;8.82;7.63;;;14.10;99.90;;;;;;5045500;28;20171;-81
2023/07/21 04:22:51;;;;;;;10.43;8.02;;;14.10;99.90;;;;;;5060346;28;20667;-81
2023/07/21 04:25:18;;;;;;;8.85;7.95;;;14.10;99.90;;;;;;5056705;28;20175;-81
2023/07/21 04:27:50;;;;;;;9.30;7.63;;;14.10;99.90;;;;;;5056013;28;20207;-81
2023/07/21 04:30:16;;;;;;;8.45;7.45;;;14.10;99.90;;;;;;5056504;28;20183;-81
2023/07/21 04:32:42;;;;;;;14.05;8.18;;;14.10;99.90;;;;;;5056698;28;20222;-82
2023/07/21 04:35:08;;;;;;;9.02;8.13;;;14.20;99.90;;;;;;5057313;28;20189;-82
2023/07/21 04:37:38;;;;;;;12.77;8.88;;;14.20;99.90;;;;;;5056915;28;20176;-82
2023/07/21 04:40:06;;;;;;;10.93;8.77;;;14.20;99.90;;;;;;5056326;28;20309;-82
2023/07/21 04:42:32;;;;;;;9.48;8.48;;;14.20;99.90;;;;;;5056315;28;20199;-82
2023/07/21 04:44:59;;;;;;;9.52;8.48;;;14.20;99.90;;;;;;5056550;28;20183;-82
2023/07/21 04:47:25;;;;;;;10.73;9.15;;;14.20;99.90;;;;;;5041062;28;20210;-82
2023/07/21 04:49:52;;;;;;;11.80;8.60;;;14.20;99.90;;;;;;5056968;28;20171;-84
2023/07/21 04:52:18;;;;;;;9.82;8.77;;;14.20;99.90;;;;;;5040271;28;20726;-85
2023/07/21 04:54:44;;;;;;;10.57;9.48;;;14.20;99.90;;;;;;5056875;28;20175;-85
2023/07/21 04:57:10;;;;;;;11.55;9.65;;;14.20;99.90;;;;;;5041356;28;20671;-82
2023/07/21 04:59:36;;;;;;;12.73;9.27;;;14.20;99.90;;;;;;5056135;28;20249;-82
2023/07/21 05:02:02;;;;;;;10.15;9.05;;;14.20;99.90;;;;;;5054304;28;20263;-88
2023/07/21 05:04:28;;;;;;;15.98;10.38;;;14.10;99.90;;;;;;5052838;28;20524;-87
2023/07/21 05:06:54;;;;;;;15.13;9.85;;;14.10;99.90;;;;;;5053124;28;20215;-87
2023/07/21 05:09:19;;;;;;;13.63;10.45;;;14.00;99.90;;;;;;5054028;28;20183;-87
2023/07/21 05:11:46;;;;;;;12.27;10.98;;;14.10;99.90;;;;;;5037653;28;20207;-87
2023/07/21 05:14:13;;;;;;;14.20;10.98;;;14.10;99.90;;;;;;5036547;28;20194;-88
2023/07/21 05:16:39;;;;;;;13.45;11.60;;;14.20;99.90;;;;;;5051172;28;20178;-88
2023/07/21 05:19:05;;;;;;;15.25;10.90;;;14.30;99.90;;;;;;5050965;28;20186;-87
2023/07/21 05:21:31;;;;;;;13.13;11.00;;;14.30;99.90;;;;;;5051024;28;20286;-87
2023/07/21 05:23:57;;;;;;;13.52;11.43;;;14.30;99.90;;;;;;5051829;28;20211;-87
2023/07/21 05:26:23;;;;;;;13.90;11.05;;;14.20;99.90;;;;;;5051983;28;20178;-87
2023/07/21 05:28:54;;;;;;;15.13;11.90;;;14.20;99.90;;;;;;5037856;28;20201;-88
2023/07/21 05:31:20;;;;;;;13.80;11.90;;;14.20;99.90;;;;;;5051601;28;20202;-88
2023/07/21 05:33:46;;;;;;;14.77;12.63;;;14.30;99.90;;;;;;5051362;28;20194;-88
2023/07/21 05:36:12;;;;;;;14.88;11.45;;;14.20;99.90;;;;;;5051477;28;20181;-88
2023/07/21 05:38:38;;;;;;;14.60;11.18;;;14.30;99.90;;;;;;5051846;28;20179;-88
2023/07/21 05:41:05;;;;;;;13.50;11.35;;;14.40;99.90;;;;;;5034288;28;20179;-88
2023/07/21 05:43:31;;;;;;;13.38;11.35;;;14.50;99.90;;;;;;5050942;28;20199;-88
2023/07/21 05:45:56;;;;;;;11.73;9.77;;;14.50;99.90;;;;;;5050872;28;20177;-88
2023/07/21 05:48:24;;;;;;;13.68;10.52;;;14.60;99.90;;;;;;5035776;28;20168;-88
2023/07/21 05:50:51;;;;;;;12.25;10.63;;;14.70;99.90;;;;;;5035396;28;20709;-88
2023/07/21 05:53:17;;;;;;;11.43;10.23;;;14.70;99.90;;;;;;5033806;28;20195;-88
2023/07/21 05:55:43;;;;;;;10.38;9.27;;;14.80;99.90;;;;;;5050575;28;20241;-88
2023/07/21 05:58:09;;;;;;;11.95;9.48;;;14.80;99.90;;;;;;5033980;28;20258;-88
2023/07/21 06:00:39;;;;;;;11.10;9.93;;;14.80;99.90;;;;;;5049770;28;20695;-88
2023/07/21 06:03:05;;;;;;;11.05;8.95;;;14.90;99.90;;;;;;5050533;28;20691;-88
2023/07/21 06:05:32;;;;;;;12.70;9.80;;;15.00;99.90;;;;;;5050346;28;20266;-88
2023/07/21 06:07:58;;;;;;;9.52;8.63;;;15.10;99.90;;;;;;5033989;28;20178;-87
2023/07/21 06:10:24;;;;;;;12.23;8.93;;;15.10;99.90;;;;;;5050521;28;20216;-88
2023/07/21 06:12:50;;;;;;;11.30;10.20;;;15.20;99.90;;;;;;5050487;28;20297;-88
2023/07/21 06:15:15;;;;;;;10.32;9.25;;;15.30;99.90;;;;;;5050141;28;20221;-88
2023/07/21 06:17:41;;;;;;;10.60;9.50;;;15.40;99.90;;;;;;5050336;28;20570;-88
2023/07/21 06:20:10;;;;;;;11.50;10.02;;;15.50;99.90;;;;;;5035323;28;20197;-88
2023/07/21 06:22:36;;;;;;;10.60;9.23;;;15.50;99.90;;;;;;5052638;28;20558;-88
2023/07/21 06:25:03;;;;;;;11.88;9.60;;;15.70;99.90;;;;;;5052242;28;20179;-88
2023/07/21 06:27:29;;;;;;;12.75;9.52;;;15.70;99.90;;;;;;5050875;28;20178;-88
2023/07/21 06:29:55;;;;;;;11.40;10.20;;;15.90;99.90;;;;;;5050128;28;20181;-88
2023/07/21 06:32:21;;;;;;;9.93;8.32;;;16.10;99.90;;;;;;5049563;28;20230;-87
2023/07/21 06:34:47;;;;;;;11.70;10.20;;;16.10;99.90;;;;;;5052116;28;20175;-88
2023/07/21 06:37:13;;;;;;;12.80;10.55;;;16.30;99.90;;;;;;5050938;28;20175;-88
2023/07/21 06:39:39;;;;;;;13.70;10.80;;;16.30;99.90;;;;;;5050580;28;20228;-87
2023/07/21 06:42:08;;;;;;;12.90;11.25;;;16.30;99.90;;;;;;5033180;28;20214;-87
2023/07/21 06:44:34;;;;;;;15.15;11.57;;;16.40;99.90;;;;;;5049856;28;20175;-88
2023/07/21 06:47:05;;;;;;;13.88;11.27;;;16.40;99.90;;;;;;5050250;28;20183;-87
2023/07/21 06:49:31;;;;;;;16.27;11.30;;;16.40;99.90;;;;;;5051363;28;20179;-88
2023/07/21 06:51:57;;;;;;;12.90;11.05;;;16.40;99.90;;;;;;5049688;28;20699;-87
2023/07/21 06:54:23;;;;;;;15.25;11.45;;;16.40;99.90;;;;;;5050089;28;20271;-88
2023/07/21 06:56:52;;;;;;;16.17;11.23;;;16.40;99.90;;;;;;5049932;28;20182;-88
2023/07/21 06:59:18;;;;;;;18.85;11.75;;;16.60;99.90;;;;;;5034270;28;20172;-87
2023/07/21 07:01:44;;;;;;;15.75;11.90;;;16.70;99.90;;;;;;5050588;28;20203;-88
2023/07/21 07:04:12;;;;;;;16.20;11.40;;;16.80;99.90;;;;;;5049361;28;20555;-88
2023/07/21 07:06:41;;;;;;;15.00;11.68;;;16.90;99.90;;;;;;5049243;28;20194;-88
2023/07/21 07:09:14;;;;;;;13.23;11.05;;;17.00;99.90;;;;;;5049416;28;20179;-88
2023/07/21 07:11:39;;;;;;;15.73;11.18;;;17.10;99.90;;;;;;5050900;28;20219;-87
2023/07/21 07:14:05;;;;;;;12.43;10.57;;;17.20;99.90;;;;;;5053260;28;20660;-87
2023/07/21 07:16:33;;;;;;;13.85;11.35;;;17.40;99.90;;;;;;5054652;28;20224;-88
2023/07/21 07:18:58;;;;;;;14.45;10.95;;;17.50;99.90;;;;;;5053629;28;20183;-88
2023/07/21 07:21:25;;;;;;;14.50;10.77;;;17.60;99.90;;;;;;5038519;28;20179;-88
2023/07/21 07:23:52;;;;;;;14.38;9.85;;;17.60;99.90;;;;;;5053903;28;20182;-88
2023/07/21 07:26:18;;;;;;;14.75;10.95;;;17.60;99.90;;;;;;5054362;28;20183;-88
2023/07/21 07:28:43;;;;;;;16.83;12.20;;;17.50;99.90;;;;;;5052401;28;20189;-88
2023/07/21 07:31:09;;;;;;;17.33;11.18;;;17.50;99.90;;;;;;5052382;28;20190;-88
2023/07/21 07:33:35;;;;;;;17.70;11.85;;;17.60;99.90;;;;;;5036173;28;20246;-88
2023/07/21 07:36:01;;;;;;;15.30;11.10;;;17.60;99.90;;;;;;5052191;28;20183;-88
2023/07/21 07:38:29;;;;;;;16.77;10.90;;;17.70;99.90;;;;;;5052298;28;20178;-88
2023/07/21 07:41:03;;;;;;;14.07;9.48;;;17.90;99.90;;;;;;5053020;28;20179;-88
2023/07/21 07:43:29;;;;;;;18.23;11.30;;;18.10;99.90;;;;;;5053452;28;20247;-88
2023/07/21 07:45:57;;;;;;;13.45;9.63;;;18.20;99.90;;;;;;5052657;28;20175;-88
2023/07/21 07:48:23;;;;;;;14.75;9.75;;;18.40;99.90;;;;;;5052221;28;20234;-88
2023/07/21 07:50:51;;;;;;;15.25;9.65;;;18.60;99.90;;;;;;5052584;28;20175;-88
2023/07/21 07:53:17;;;;;;;13.23;9.25;;;18.60;99.90;;;;;;5051890;28;20222;-88
2023/07/21 07:55:44;;;;;;;17.73;10.32;;;18.50;99.90;;;;;;5052266;28;20259;-87
2023/07/21 07:58:10;;;;;;;16.80;9.55;;;18.30;99.90;;;;;;5052942;28;20179;-88
2023/07/21 08:00:40;;;;;;;13.43;10.27;;;18.20;99.90;;;;;;5052186;28;20257;-88
2023/07/21 08:03:07;;;;;;;13.35;9.90;;;18.30;99.90;;;;;;5051736;28;20203;-88
2023/07/21 08:05:35;;;;;;;14.88;9.57;;;18.50;99.90;;;;;;5052184;28;20183;-88
2023/07/21 08:08:02;;;;;;;12.95;9.27;;;18.60;99.90;;;;;;5035700;28;20237;-88
2023/07/21 08:10:32;;;;;;;14.20;9.57;;;18.80;99.90;;;;;;5052782;28;20183;-88
2023/07/21 08:13:08;;;;;;;15.27;9.10;;;18.90;99.90;;;;;;5052158;28;20301;-88
2023/07/21 08:16:07;;;;;;;12.68;9.60;;;19.00;99.90;;;;;;5036998;28;20159;-88
2023/07/21 08:18:33;;;;;;;14.88;10.13;;;19.20;99.90;;;;;;5052150;28;20219;-88
2023/07/21 08:20:58;;;;;;;12.32;8.60;;;19.40;99.90;;;;;;5051629;28;20207;-87
2023/07/21 08:23:24;;;;;;;13.10;9.65;;;19.70;99.90;;;;;;5051177;28;20230;-88
2023/07/21 08:26:17;;;;;;;11.80;9.23;;;19.60;76.50;;;;;;5051763;28;20222;-88
2023/07/21 08:28:42;;;;;;;11.80;9.48;;;19.70;99.90;;;;;;5036435;28;20191;-88
2023/07/21 08:31:13;;;;;;;13.98;9.35;;;19.70;99.90;;;;;;5051824;28;20575;-89
2023/07/21 08:33:39;;;;;;;12.93;9.10;;;19.70;99.90;;;;;;5052456;28;20184;-88
2023/07/21 08:36:14;;;;;;;13.30;9.05;;;19.80;99.90;;;;;;5052025;28;20584;-89
2023/07/21 08:38:40;;;;;;;9.73;7.20;;;20.30;41.60;;;;;;5052345;28;20175;-89
2023/07/21 08:41:16;;;;;;;8.60;6.95;;;20.70;52.10;;;;;;5038464;28;20694;-88
2023/07/21 08:43:49;;;;;;;9.13;6.20;;;21.20;1.00;;;;;;5053610;28;20534;-89
2023/07/21 08:46:39;;;;;;;9.63;6.60;;;21.50;1.00;;;;;;5051630;28;20290;-89
2023/07/21 08:49:09;;;;;;;8.98;7.65;;;22.10;99.90;;;;;;5051052;28;20167;-89
2023/07/21 08:51:41;;;;;;;10.35;7.03;;;22.10;99.90;;;;;;5051691;28;20222;-89
2023/07/21 08:54:10;;;;;;;8.48;6.72;;;21.70;99.90;;;;;;5051903;28;20171;-89
2023/07/21 08:56:36;;;;;;;11.88;7.47;;;21.40;99.90;;;;;;5050880;28;20180;-89
2023/07/21 08:59:03;;;;;;;8.57;6.65;;;21.10;99.90;;;;;;5035977;28;20190;-88
2023/07/21 09:01:32;;;;;;;10.38;7.60;;;20.80;1.00;;;;;;5051537;28;20183;-88
2023/07/21 09:03:58;;;;;;;10.30;7.53;;;20.30;1.00;;;;;;5050977;28;20368;-88
2023/07/21 09:06:28;;;;;;;12.57;7.18;;;20.10;1.00;;;;;;5051883;28;20236;-88
2023/07/21 09:08:56;;;;;;;21.08;11.93;;;20.30;43.10;;;;;;5051341;28;20175;-88
2023/07/21 09:11:42;;;;;;;11.25;7.18;;;20.30;1.00;;;;;;5050660;28;20293;-88
2023/07/21 09:14:10;;;;;;;13.82;8.23;;;20.40;1.00;;;;;;5051331;28;20179;-88
2023/07/21 09:16:38;;;;;;;7.38;6.32;;;20.40;1.00;;;;;;5035660;28;20300;-88
2023/07/21 09:19:09;;;;;;;9.98;5.60;;;20.10;1.00;;;;;;5050617;28;20175;-88
2023/07/21 09:21:36;;;;;;;10.88;7.10;;;19.90;1.00;;;;;;5050657;28;20195;-88
2023/07/21 09:24:08;;;;;;;7.97;6.18;;;19.90;1.00;;;;;;5050689;28;20179;-88
2023/07/21 09:26:34;;;;;;;9.02;6.28;;;20.10;1.00;;;;;;5051415;28;20529;-88
2023/07/21 09:29:00;;;;;;;8.27;5.75;;;20.40;99.90;;;;;;5050501;28;20605;-88
2023/07/21 09:31:31;;;;;;;7.70;5.65;;;20.50;99.90;;;;;;5049875;28;20237;-88
2023/07/21 09:34:05;;;;;;;8.77;5.80;;;20.40;60.60;;;;;;5034303;28;20221;-88
2023/07/21 09:36:32;;;;;;;8.10;5.53;;;20.30;99.90;;;;;;5049535;28;20181;-88
2023/07/21 09:39:04;;;;;;;9.25;5.35;;;20.40;99.90;;;;;;5050524;28;20179;-88
2023/07/21 09:41:38;;;;;;;8.70;5.13;;;20.30;88.10;;;;;;5050193;28;20175;-88
2023/07/21 09:44:05;;;;;;;9.23;5.50;;;20.30;99.90;;;;;;5050034;28;20197;-88
2023/07/21 09:46:31;;;;;;;7.68;5.22;;;20.30;1.00;;;;;;5033339;28;20218;-88
2023/07/21 09:48:57;;;;;;;9.70;4.22;;;20.10;99.90;;;;;;5050718;28;20179;-87
2023/07/21 09:51:26;;;;;;;4.38;3.83;;;20.30;99.90;;;;;;5051060;28;20232;-88
2023/07/21 09:53:53;;;;;;;6.63;4.10;;;20.70;99.90;;;;;;5049785;28;20175;-87
2023/07/21 09:56:21;;;;;;;5.30;4.32;;;20.70;1.00;;;;;;5049768;28;20174;-87
2023/07/21 09:59:04;;;;;;;5.10;3.72;;;20.80;22.70;;;;;;5049889;28;20183;-87
2023/07/21 10:01:31;;;;;;;5.05;3.70;;;20.70;99.90;;;;;;5050651;28;20175;-88
2023/07/21 10:03:58;;;;;;;5.03;3.63;;;20.80;99.90;;;;;;5050279;28;20179;-88
2023/07/21 10:06:25;;;;;;;6.72;4.30;;;21.00;1.00;;;;;;5050035;28;20648;-87
2023/07/21 10:08:52;;;;;;;4.28;3.58;;;21.00;99.90;;;;;;5049707;28;20183;-87
2023/07/21 10:11:18;;;;;;;4.90;3.80;;;21.10;99.90;;;;;;5048950;28;20348;-87
2023/07/21 10:13:45;;;;;;;4.95;4.07;;;21.00;99.90;;;;;;5049624;28;20237;-87
2023/07/21 10:16:11;;;;;;;5.80;3.85;;;21.00;1.00;;;;;;5049485;28;20179;-89
2023/07/21 10:19:01;;;;;;;4.00;3.60;;;21.00;1.00;;;;;;5049696;28;20246;-88
2023/07/21 10:21:46;;;;;;;3.28;2.70;;;20.90;99.90;;;;;;5033177;28;20258;-88
2023/07/21 10:24:23;;;;;;;5.35;2.72;;;20.80;1.00;;;;;;5050406;28;20190;-87
2023/07/21 10:27:01;;;;;;;4.18;3.60;;;21.00;1.00;;;;;;5049885;28;20179;-87
2023/07/21 10:29:29;;;;;;;4.22;3.47;;;21.00;99.90;;;;;;5034261;28;20628;-88
2023/07/21 10:32:08;;;;;;;3.05;2.78;;;21.30;1.00;;;;;;5050317;28;20218;-88
2023/07/21 10:34:42;;;;;;;3.53;3.00;;;21.40;1.00;;;;;;5034935;28;20191;-87
2023/07/21 10:37:09;;;;;;;3.75;2.83;;;21.30;99.90;;;;;;5052265;28;20639;-87
2023/07/21 10:39:42;;;;;;;3.97;3.10;;;21.30;1.00;;;;;;5050672;28;20167;-86
2023/07/21 10:42:10;;;;;;;3.97;3.28;;;21.30;1.00;;;;;;5050585;28;20203;-87
2023/07/21 10:44:38;;;;;;;6.47;3.80;;;21.50;99.90;;;;;;5049736;28;20191;-87
2023/07/21 10:47:10;;;;;;;4.95;3.10;;;21.70;99.90;;;;;;5051676;28;20274;-87
2023/07/21 10:49:46;;;;;;;5.43;3.45;;;21.70;99.90;;;;;;5039295;28;20186;-87
2023/07/21 10:52:12;;;;;;;9.35;3.63;;;21.60;1.00;;;;;;5053522;28;20327;-87
2023/07/21 10:54:39;;;;;;;5.82;3.30;;;21.50;99.90;;;;;;5054226;28;20179;-87
2023/07/21 10:57:11;;;;;;;5.18;3.60;;;21.60;99.90;;;;;;5053381;28;20213;-87
2023/07/21 10:59:37;;;;;;;3.00;2.70;;;21.70;99.90;;;;;;5053455;28;20602;-87
2023/07/21 11:02:08;;;;;;;5.95;2.90;;;21.80;99.90;;;;;;5037796;28;20230;-87
2023/07/21 11:04:43;;;;;;;5.38;2.80;;;21.80;95.20;;;;;;5036233;28;20262;-87
2023/07/21 11:07:09;;;;;;;3.35;3.10;;;22.10;75.00;;;;;;5053191;28;20616;-87
2023/07/21 11:09:43;;;;;;;3.17;2.88;;;22.30;1.00;;;;;;5036089;28;20279;-87
2023/07/21 11:12:09;;;;;;;5.65;3.97;;;22.50;99.90;;;;;;5052826;28;20221;-85
2023/07/21 11:14:36;;;;;;;6.03;3.60;;;22.40;1.00;;;;;;5036232;28;20179;-86
2023/07/21 11:17:03;;;;;;;5.53;4.00;;;22.20;1.00;;;;;;5052640;28;20186;-85
2023/07/21 11:19:32;;;;;;;5.28;3.90;;;21.90;99.90;;;;;;5052664;28;20178;-86
2023/07/21 11:21:58;;;;;;;3.42;3.10;;;21.70;95.80;;;;;;5053475;28;20699;-86
2023/07/21 11:24:26;;;;;;;4.85;3.70;;;21.50;99.90;;;;;;5037424;28;20239;-87
2023/07/21 11:26:58;;;;;;;4.05;3.22;;;21.50;99.90;;;;;;5052347;28;20181;-87
2023/07/21 11:29:25;;;;;;;5.55;3.47;;;21.50;99.90;;;;;;5052465;28;20643;-87
2023/07/21 11:31:51;;;;;;;3.28;2.97;;;21.60;99.90;;;;;;5037098;28;20218;-86
2023/07/21 11:34:25;;;;;;;4.20;3.33;;;21.70;1.00;;;;;;5035690;28;20265;-85
2023/07/21 11:36:58;;;;;;;3.22;2.83;;;22.00;1.00;;;;;;5052178;28;20171;-86
2023/07/21 11:39:25;;;;;;;4.20;3.30;;;22.10;1.00;;;;;;5036856;28;20225;-86
2023/07/21 11:41:53;;;;;;;3.78;3.47;;;21.90;1.00;;;;;;5052321;28;20202;-86
2023/07/21 11:44:25;;;;;;;5.05;3.00;;;21.90;99.90;;;;;;5052108;28;20270;-87
2023/07/21 11:46:59;;;;;;;4.43;3.42;;;22.10;99.90;;;;;;5052164;28;20266;-86
2023/07/21 11:49:27;;;;;;;3.90;3.53;;;22.20;1.00;;;;;;5036739;28;20171;-86
2023/07/21 11:51:54;;;;;;;4.65;3.90;;;22.10;99.90;;;;;;5052040;28;20211;-86
2023/07/21 11:54:36;;;;;;;4.13;3.63;;;22.10;99.90;;;;;;5053421;28;20536;-87
2023/07/21 11:57:02;;;;;;;4.57;3.50;;;22.20;99.90;;;;;;5052928;28;20175;-87
2023/07/21 11:59:28;;;;;;;4.07;3.35;;;22.10;99.90;;;;;;5050871;28;20179;-87
2023/07/21 12:01:56;;;;;;;3.33;3.03;;;22.20;99.90;;;;;;5052266;28;20202;-87
2023/07/21 12:04:23;;;;;;;5.30;3.13;;;22.20;99.90;;;;;;5052998;28;20195;-86
2023/07/21 12:06:49;;;;;;;5.25;3.33;;;22.20;99.90;;;;;;5054093;28;20191;-86
2023/07/21 12:09:16;;;;;;;5.47;2.83;;;22.30;99.90;;;;;;5053398;28;20179;-87
2023/07/21 12:11:42;;;;;;;4.30;2.92;;;22.30;99.90;;;;;;5037397;28;20280;-87
2023/07/21 12:14:13;;;;;;;3.55;2.80;;;22.60;99.90;;;;;;5052487;28;20183;-87
2023/07/21 12:16:39;;;;;;;4.30;3.08;;;23.10;99.90;;;;;;5052340;28;20175;-87
2023/07/21 12:19:06;;;;;;;7.22;2.85;;;23.40;99.90;;;;;;5036179;28;20202;-87
2023/07/21 12:21:34;;;;;;;4.25;2.80;;;23.60;99.90;;;;;;5052819;28;20179;-87
2023/07/21 12:23:59;;;;;;;3.90;2.97;;;23.80;99.90;;;;;;5052967;28;20180;-85
2023/07/21 12:26:25;;;;;;;3.60;3.20;;;23.60;99.90;;;;;;5037311;28;20174;-86
2023/07/21 12:28:51;;;;;;;5.03;3.38;;;23.10;99.90;;;;;;5054650;28;20187;-86
2023/07/21 12:31:17;;;;;;;4.07;3.33;;;22.90;99.90;;;;;;5052139;28;20641;-86
2023/07/21 12:33:48;;;;;;;5.40;3.10;;;22.70;99.90;;;;;;5052110;28;20207;-86
2023/07/21 12:36:17;;;;;;;4.93;3.58;;;22.50;99.90;;;;;;5051945;28;20167;-86
2023/07/21 12:38:44;;;;;;;3.67;3.22;;;22.50;99.90;;;;;;5053291;28;20175;-86
2023/07/21 12:41:10;;;;;;;2.90;2.70;;;22.40;99.90;;;;;;5052519;28;20217;-86
2023/07/21 12:43:37;;;;;;;3.85;2.80;;;22.60;99.90;;;;;;5053585;28;20205;-86
2023/07/21 12:46:03;;;;;;;4.45;2.92;;;23.10;99.90;;;;;;5054675;28;20183;-87
2023/07/21 12:48:30;;;;;;;4.28;2.80;;;23.40;99.90;;;;;;5053573;28;20735;-88